Accueil
METAR-TAF:

METAR-TAF

Aéroports :

Aéroport de Lydd

Lydd, Angleterre

latitude: 50-57N, longitude: 000-56E, altitude: 3 m

Observation

Le bulletin a été fait il y a 11 minutes, à 17:50 UTC
Vent 7 kt de ouest/sud-ouest
Température 13°C
Humidité 94%
Pression 1010 hPa
Visibilité: 3700 m
Nuages fragmentés à une hauteur de 400 ft
Nuages fragmentés à une hauteur de 700 ft
Ciel couvert à une hauteur de 3300 ft
pluie

METAR: EGMD 271750Z 25007KT 3700 RA BKN004 BKN007 OVC033 13/12 Q1010

Heure: 18:01 (18:01 UTC)

Prévision

Le bulletin a été fait il y a 1 heure et 5 minutes, à 16:56 UTC
Prévision valable du 27 à 18 UTC au 28 à 03 UTC
Vent 8 kt de sud-ouest
Visibilité 10 km ou plus
Nuages épars à une hauteur de 600 ft
Temporairement
du 27 à 18 UTC au 27 à 24 UTC
Visibilité: 2000 m
Nuages fragmentés à une hauteur de 200 ft
pluie, bruine, brume

TAF: EGMD 271656Z 2718/2803 22008KT 9999 SCT006 TEMPO 2718/2724 2000 RADZ BR BKN002

Observations et prévisions météorologiques de plus de 4000 aéroports (messages METAR et TAF).

Les stations disponibles sont représentées par des disques jaunes et rouges sur la carte.

Passer la souris dessus pour voir le nom de la station.

Cliquer dessus pour voir les observations et prévisions météorologiques.

Pour changer de carte: cliquez sur les boutons verts avec une croix noire pour zoomer, sur le bouton vert avec un tiret pour effectuer un zoom arrière, ou sur les flèches vertes pour les cartes adjacentes.


METAR-TAF: